Lyons, New Jersey
Current Conditions -  °F | °C
As of 4:53 PM on Thursday 18 Dec 2014 (Local Time) from KSMQ Reporting Station
Overcast Overcast  
Wind Chill: 35°   Ceiling: 4100
Heat Index: 40°   Visibility: 10mi
Dew Point: 24°   Wind: 7mph
Humidity: 53%   Direction: 300°WNW
Pressure: 29.97"   Gusts: NA
Location:  40.69°N, 74.55°W
Report Text: KSMQ 182153Z AUTO 30006KT 10SM OVC041 04/M04 A2997 RMK AO2 SLP152 T00441044
Loading
Personal Weather Stations






























Interactive Weather Map New forecast layout! Learn more

10-Day Weather Forecast

Advertisements
Track Severe Weather on mobile